createdAt,value
2023-01-19T00:01:28.037Z,100034.34
2023-01-19T00:03:54.791Z,100030.91
2023-01-19T00:06:21.541Z,100035.97
2023-01-19T00:08:52.978Z,100039.38
2023-01-19T00:11:19.899Z,100035.06
2023-01-19T00:13:50.608Z,100039.34
2023-01-19T00:16:18.967Z,100041.88
2023-01-19T00:18:46.701Z,100049.56
2023-01-19T00:21:17.258Z,100047.81
2023-01-19T00:23:47.441Z,100055.47
2023-01-19T00:26:16.340Z,100058.03
2023-01-19T00:28:44.992Z,100066.47
2023-01-19T00:31:12.237Z,100073.31
2023-01-19T00:33:38.869Z,100074.13
2023-01-19T00:36:05.720Z,100080.13
2023-01-19T00:38:32.397Z,100079.31
2023-01-19T00:40:59.568Z,100093.06
2023-01-19T00:43:26.180Z,100087.09
2023-01-19T00:45:53.638Z,100091.31
2023-01-19T00:48:20.404Z,100085.31
2023-01-19T00:50:49.134Z,100092.97
2023-01-19T00:53:15.808Z,100098.88
2023-01-19T00:55:42.459Z,100096.34
2023-01-19T00:58:09.717Z,100104.84
2023-01-19T01:00:39.205Z,100101.41
2023-01-19T01:03:05.874Z,100106.56
2023-01-19T01:05:32.580Z,100108.31
2023-01-19T01:07:59.322Z,100102.38
2023-01-19T01:10:28.722Z,100107.53
2023-01-19T01:13:20.397Z,100106.63
2023-01-19T01:15:42.705Z,100117.69
2023-01-19T01:18:10.031Z,100105.72
2023-01-19T01:20:37.162Z,100087.63
2023-01-19T01:23:04.388Z,100113.38
2023-01-19T01:25:31.599Z,100113.31
2023-01-19T01:27:58.268Z,100110.75
2023-01-19T01:30:30.820Z,100105.59
2023-01-19T01:32:57.448Z,100114.97
2023-01-19T01:35:24.169Z,100108.94
2023-01-19T01:37:50.827Z,100108.00
2023-01-19T01:40:19.080Z,100119.13
2023-01-19T01:42:46.068Z,100125.03
2023-01-19T01:45:38.499Z,100113.06
2023-01-19T01:48:13.993Z,100112.19
2023-01-19T01:51:12.118Z,100119.88
2023-01-19T01:53:43.511Z,100110.47
2023-01-19T01:56:17.866Z,100106.09
2023-01-19T01:58:49.811Z,100103.50
2023-01-19T02:01:35.375Z,100111.31
2023-01-19T02:04:02.409Z,100107.06
2023-01-19T02:06:29.571Z,100111.38
2023-01-19T02:09:22.647Z,100113.94
2023-01-19T02:12:10.793Z,100120.59
2023-01-19T02:14:40.639Z,100119.66
2023-01-19T02:17:07.719Z,100118.81
2023-01-19T02:19:43.473Z,100125.59
2023-01-19T02:22:20.210Z,100121.25
2023-01-19T02:24:47.179Z,100115.28
2023-01-19T02:27:27.055Z,100118.75
2023-01-19T02:29:56.928Z,100126.38
2023-01-19T02:32:23.729Z,100114.34
2023-01-19T02:34:50.374Z,100111.75
2023-01-19T02:37:21.656Z,100103.16
2023-01-19T02:40:10.974Z,100116.72
2023-01-19T02:42:45.480Z,100116.91
2023-01-19T02:45:14.525Z,100120.25
2023-01-19T02:47:52.478Z,100120.19
2023-01-19T02:50:50.530Z,100114.13
2023-01-19T02:53:29.322Z,100114.03
2023-01-19T02:56:25.066Z,100109.81
2023-01-19T02:59:03.542Z,100107.22
2023-01-19T03:01:48.157Z,100108.81
2023-01-19T03:04:25.852Z,100103.63
2023-01-19T03:07:00.891Z,100113.09
2023-01-19T03:09:53.170Z,100113.16
2023-01-19T03:12:49.848Z,100106.34
2023-01-19T03:15:27.277Z,100109.84
2023-01-19T03:17:57.122Z,100112.28
2023-01-19T03:20:25.644Z,100117.28
2023-01-19T03:23:00.452Z,100109.53
2023-01-19T03:25:30.290Z,100117.34
2023-01-19T03:27:57.638Z,100116.50
2023-01-19T03:30:36.216Z,100120.91
2023-01-19T03:33:17.811Z,100120.00
2023-01-19T03:35:52.882Z,100118.34
2023-01-19T03:38:25.525Z,100110.72
2023-01-19T03:41:00.216Z,100110.72
2023-01-19T03:43:29.299Z,100110.78
2023-01-19T03:45:57.003Z,100122.88
2023-01-19T03:48:27.287Z,100121.06
2023-01-19T03:51:03.519Z,100122.88
2023-01-19T03:53:30.109Z,100118.59
2023-01-19T03:55:57.179Z,100122.03
2023-01-19T03:58:26.940Z,100133.94
2023-01-19T04:00:53.600Z,100138.16
2023-01-19T04:03:20.297Z,100135.66
2023-01-19T04:05:46.941Z,100139.09
2023-01-19T04:08:16.453Z,100145.09
2023-01-19T04:10:43.136Z,100141.72
2023-01-19T04:13:09.725Z,100146.75
2023-01-19T04:15:43.670Z,100142.44
2023-01-19T04:18:10.318Z,100139.06
2023-01-19T04:20:37.520Z,100146.81
2023-01-19T04:23:05.958Z,100151.22
2023-01-19T04:25:33.331Z,100145.19
2023-01-19T04:28:06.784Z,100153.56
2023-01-19T04:30:33.446Z,100166.22
2023-01-19T04:33:00.546Z,100149.94
2023-01-19T04:35:27.383Z,100157.59
2023-01-19T04:37:54.008Z,100160.13
2023-01-19T04:40:20.749Z,100159.16
2023-01-19T04:42:47.514Z,100159.31
2023-01-19T04:45:14.638Z,100153.28
2023-01-19T04:47:42.833Z,100149.63
2023-01-19T04:50:11.681Z,100154.59
2023-01-19T04:52:39.635Z,100152.88
2023-01-19T04:55:07.544Z,100155.13
2023-01-19T04:57:37.343Z,100149.97
2023-01-19T05:00:07.657Z,100150.00
2023-01-19T05:02:35.034Z,100144.75
2023-01-19T05:05:02.331Z,100143.03
2023-01-19T05:07:31.630Z,100153.19
2023-01-19T05:10:00.890Z,100151.53
2023-01-19T05:12:27.735Z,100163.50
2023-01-19T05:14:54.386Z,100156.66
2023-01-19T05:17:21.049Z,100158.44
2023-01-19T05:19:48.911Z,100154.97
2023-01-19T05:22:16.205Z,100161.84
2023-01-19T05:24:43.316Z,100155.22
2023-01-19T05:27:10.108Z,100162.19
2023-01-19T05:29:39.483Z,100163.69
2023-01-19T05:32:06.409Z,100158.59
2023-01-19T05:34:37.102Z,100162.81
2023-01-19T05:37:03.765Z,100168.03
2023-01-19T05:39:32.725Z,100161.25
2023-01-19T05:42:02.460Z,100170.84
2023-01-19T05:44:29.714Z,100176.78
2023-01-19T05:46:56.574Z,100175.28
2023-01-19T05:49:23.290Z,100173.59
2023-01-19T05:51:56.844Z,100172.72
2023-01-19T05:54:23.819Z,100175.28
2023-01-19T05:56:54.140Z,100172.78
2023-01-19T05:59:25.089Z,100184.69
2023-01-19T06:01:55.269Z,100190.63
2023-01-19T06:04:25.827Z,100186.28
2023-01-19T06:06:55.747Z,100182.06
2023-01-19T06:09:22.426Z,100184.66
2023-01-19T06:11:50.010Z,100183.06
2023-01-19T06:14:18.154Z,100183.78
2023-01-19T06:16:45.263Z,100187.13
2023-01-19T06:19:15.141Z,100198.06
2023-01-19T06:21:41.913Z,100187.81
2023-01-19T06:24:15.503Z,100183.59
2023-01-19T06:26:45.526Z,100184.38
2023-01-19T06:29:16.347Z,100190.28
2023-01-19T06:31:44.236Z,100189.38
2023-01-19T06:34:11.492Z,100194.53
2023-01-19T06:36:41.221Z,100196.16
2023-01-19T06:39:13.418Z,100196.22
2023-01-19T06:41:47.279Z,100197.91
2023-01-19T06:44:17.065Z,100201.56
2023-01-19T06:46:46.624Z,100199.00
2023-01-19T06:49:13.240Z,100202.19
2023-01-19T06:51:39.883Z,100196.06
2023-01-19T06:54:06.643Z,100202.78
2023-01-19T06:56:33.314Z,100202.75
2023-01-19T06:59:00.017Z,100203.63
2023-01-19T07:01:27.098Z,100202.69
2023-01-19T07:03:59.772Z,100203.53
2023-01-19T07:06:26.503Z,100206.13
2023-01-19T07:08:54.351Z,100210.47
2023-01-19T07:11:23.613Z,100212.19
2023-01-19T07:14:05.807Z,100221.69
2023-01-19T07:16:35.176Z,100233.75
2023-01-19T07:19:04.678Z,100229.53
2023-01-19T07:21:31.332Z,100227.78
2023-01-19T07:24:01.040Z,100226.97
2023-01-19T07:26:28.087Z,100226.16
2023-01-19T07:28:55.016Z,100239.81
2023-01-19T07:31:21.813Z,100235.59
2023-01-19T07:33:48.650Z,100239.56
2023-01-19T07:36:15.556Z,100231.91
2023-01-19T07:38:42.247Z,100240.41
2023-01-19T07:41:10.244Z,100248.13
2023-01-19T07:43:36.871Z,100243.00
2023-01-19T07:46:05.774Z,100241.28
2023-01-19T07:48:32.690Z,100248.25
2023-01-19T07:51:01.199Z,100246.63
2023-01-19T07:53:27.867Z,100249.31
2023-01-19T07:55:58.342Z,100250.28
2023-01-19T07:58:25.446Z,100248.53
2023-01-19T08:00:52.810Z,100258.03
2023-01-19T08:03:19.674Z,100254.59
2023-01-19T08:05:51.346Z,100242.72
2023-01-19T08:08:18.432Z,100257.34
2023-01-19T08:10:45.308Z,100265.94
2023-01-19T08:13:12.232Z,100254.16
2023-01-19T08:15:38.865Z,100263.63
2023-01-19T08:18:06.286Z,100265.50
2023-01-19T08:20:33.024Z,100267.31
2023-01-19T08:23:00.429Z,100260.56
2023-01-19T08:25:42.397Z,100262.38
2023-01-19T08:28:10.542Z,100271.91
2023-01-19T08:30:37.650Z,100273.69
2023-01-19T08:33:04.697Z,100273.78
2023-01-19T08:35:32.390Z,100274.69
2023-01-19T08:38:01.676Z,100273.94
2023-01-19T08:40:30.251Z,100280.84
2023-01-19T08:43:04.897Z,100280.09
2023-01-19T08:45:32.898Z,100276.75
2023-01-19T08:48:06.521Z,100275.09
2023-01-19T08:50:34.300Z,100281.97
2023-01-19T08:53:02.964Z,100287.22
2023-01-19T08:55:30.406Z,100285.47
2023-01-19T08:58:00.280Z,100287.25
2023-01-19T09:00:27.575Z,100294.13
2023-01-19T09:02:57.983Z,100290.81
2023-01-19T09:05:25.063Z,100289.13
2023-01-19T09:07:51.841Z,100292.59
2023-01-19T09:10:19.583Z,100293.53
2023-01-19T09:12:46.630Z,100294.47
2023-01-19T09:15:16.252Z,100297.09
2023-01-19T09:17:45.574Z,100299.75
2023-01-19T09:20:12.363Z,100298.94
2023-01-19T09:22:42.394Z,100302.44
2023-01-19T09:25:12.553Z,100296.50
2023-01-19T09:27:39.195Z,100302.59
2023-01-19T09:30:06.960Z,100298.34
2023-01-19T09:32:33.746Z,100307.84
2023-01-19T09:35:00.429Z,100309.63
2023-01-19T09:37:27.107Z,100303.66
2023-01-19T09:39:53.924Z,100307.16
2023-01-19T09:42:46.410Z,100304.63
2023-01-19T09:45:23.094Z,100310.69
2023-01-19T09:47:50.858Z,100304.78
2023-01-19T09:50:31.927Z,100309.13
2023-01-19T09:53:13.838Z,100310.91
2023-01-19T09:55:42.680Z,100303.19
2023-01-19T09:58:19.430Z,100305.03
2023-01-19T10:00:53.385Z,100304.28
2023-01-19T10:03:21.031Z,100295.78
2023-01-19T10:06:03.650Z,100302.72
2023-01-19T10:08:39.947Z,100296.78
2023-01-19T10:11:22.966Z,100291.69
2023-01-19T10:13:51.909Z,100292.56
2023-01-19T10:16:32.256Z,100288.38
2023-01-19T10:19:23.920Z,100286.75
2023-01-19T10:21:51.643Z,100283.31
2023-01-19T10:24:30.430Z,100277.44
2023-01-19T10:27:00.627Z,100284.50
2023-01-19T10:29:40.807Z,100281.91
2023-01-19T10:32:11.321Z,100282.78
2023-01-19T10:34:38.214Z,100286.16
2023-01-19T10:37:17.258Z,100272.41
2023-01-19T10:39:55.133Z,100275.88
2023-01-19T10:42:22.801Z,100280.16
2023-01-19T10:44:52.836Z,100270.75
2023-01-19T10:47:22.934Z,100272.50
2023-01-19T10:49:49.816Z,100273.38
2023-01-19T10:52:36.123Z,100274.25
2023-01-19T10:55:04.942Z,100280.28
2023-01-19T10:57:38.516Z,100288.00
2023-01-19T11:00:08.096Z,100276.03
2023-01-19T11:02:35.055Z,100283.81
2023-01-19T11:05:23.316Z,100276.09
2023-01-19T11:07:49.988Z,100279.53
2023-01-19T11:10:16.658Z,100278.66
2023-01-19T11:13:01.471Z,100287.25
2023-01-19T11:15:53.007Z,100282.16
2023-01-19T11:18:40.109Z,100272.72
2023-01-19T11:21:17.340Z,100264.16
2023-01-19T11:23:59.075Z,100254.72
2023-01-19T11:26:42.854Z,100255.59
2023-01-19T11:29:26.437Z,100252.19
2023-01-19T11:31:54.549Z,100247.88
2023-01-19T11:34:38.761Z,100248.69
2023-01-19T11:37:20.362Z,100252.97
2023-01-19T11:39:53.034Z,100248.66
2023-01-19T11:42:20.179Z,100238.06
2023-01-19T11:45:04.524Z,100233.78
2023-01-19T11:47:41.314Z,100238.25
2023-01-19T11:50:26.608Z,100248.53
2023-01-19T11:53:12.022Z,100243.34
2023-01-19T11:56:04.545Z,100243.38
2023-01-19T11:58:35.912Z,100251.09
2023-01-19T12:01:11.278Z,100248.56
2023-01-19T12:03:46.826Z,100242.53
2023-01-19T12:06:20.569Z,100249.44
2023-01-19T12:08:52.562Z,100241.78
2023-01-19T12:11:29.736Z,100242.53
2023-01-19T12:13:56.349Z,100233.84
2023-01-19T12:16:35.486Z,100231.97
2023-01-19T12:19:15.048Z,100229.38
2023-01-19T12:21:42.579Z,100229.47
2023-01-19T12:24:36.303Z,100235.47
2023-01-19T12:27:19.899Z,100231.34
2023-01-19T12:29:47.346Z,100241.69
2023-01-19T12:32:13.958Z,100252.81
2023-01-19T12:34:48.022Z,100248.56
2023-01-19T12:37:44.233Z,100257.06
2023-01-19T12:40:13.657Z,100257.00
2023-01-19T12:42:46.665Z,100251.91
2023-01-19T12:45:25.836Z,100254.59
2023-01-19T12:47:58.841Z,100260.63
2023-01-19T12:50:26.947Z,100264.91
2023-01-19T12:52:58.470Z,100258.06
2023-01-19T12:55:35.003Z,100258.94
2023-01-19T12:58:12.943Z,100262.22
2023-01-19T13:00:48.111Z,100264.50
2023-01-19T13:03:17.605Z,100259.06
2023-01-19T13:05:44.252Z,100262.44
2023-01-19T13:08:12.583Z,100263.13
2023-01-19T13:11:02.312Z,100267.47
2023-01-19T13:13:28.921Z,100276.41
2023-01-19T13:15:57.208Z,100275.81
2023-01-19T13:18:26.619Z,100271.69
2023-01-19T13:21:00.519Z,100280.44
2023-01-19T13:23:52.046Z,100285.63
2023-01-19T13:26:21.748Z,100288.22
2023-01-19T13:29:05.399Z,100285.63
2023-01-19T13:31:41.451Z,100286.50
2023-01-19T13:34:18.820Z,100286.50
2023-01-19T13:36:50.896Z,100285.66
2023-01-19T13:39:24.745Z,100293.41
2023-01-19T13:41:55.014Z,100298.56
2023-01-19T13:44:39.285Z,100295.09
2023-01-19T13:47:13.468Z,100290.81
2023-01-19T13:49:44.833Z,100293.41
2023-01-19T13:52:26.360Z,100295.13
2023-01-19T13:54:59.790Z,100302.00
2023-01-19T13:57:31.770Z,100302.00
2023-01-19T14:00:31.846Z,100294.28
2023-01-19T14:03:02.653Z,100304.59
2023-01-19T14:05:40.335Z,100302.88
2023-01-19T14:08:12.940Z,100302.00
2023-01-19T14:11:06.146Z,100296.84
2023-01-19T14:13:44.219Z,100314.00
2023-01-19T14:16:17.043Z,100308.03
2023-01-19T14:18:44.018Z,100316.59
2023-01-19T14:21:15.067Z,100319.19
2023-01-19T14:23:41.641Z,100318.31
2023-01-19T14:26:43.141Z,100315.75
2023-01-19T14:29:21.861Z,100315.72
2023-01-19T14:32:05.144Z,100310.56
2023-01-19T14:34:54.575Z,100314.88
2023-01-19T14:37:23.061Z,100320.91
2023-01-19T14:39:59.015Z,100320.03
2023-01-19T14:42:36.007Z,100320.91
2023-01-19T14:45:08.063Z,100326.88
2023-01-19T14:47:41.715Z,100330.31
2023-01-19T14:50:17.942Z,100333.72
2023-01-19T14:52:57.609Z,100334.59
2023-01-19T14:55:48.460Z,100333.72
2023-01-19T14:58:18.712Z,100325.13
2023-01-19T15:00:46.435Z,100331.09
2023-01-19T15:03:13.433Z,100330.22
2023-01-19T15:05:44.165Z,100327.63
2023-01-19T15:08:34.558Z,100335.34
2023-01-19T15:11:14.012Z,100337.06
2023-01-19T15:13:41.785Z,100338.75
2023-01-19T15:16:10.855Z,100337.00
2023-01-19T15:18:38.585Z,100333.59
2023-01-19T15:21:06.077Z,100330.13
2023-01-19T15:23:33.457Z,100336.97
2023-01-19T15:26:02.262Z,100341.22
2023-01-19T15:28:30.398Z,100343.78
2023-01-19T15:30:59.413Z,100342.00
2023-01-19T15:33:30.570Z,100341.94
2023-01-19T15:36:00.724Z,100339.34
2023-01-19T15:38:27.844Z,100339.34
2023-01-19T15:40:54.489Z,100335.03
2023-01-19T15:43:21.558Z,100337.63
2023-01-19T15:45:54.805Z,100341.91
2023-01-19T15:48:25.304Z,100340.22
2023-01-19T15:50:51.948Z,100345.34
2023-01-19T15:53:20.862Z,100353.94
2023-01-19T15:55:52.963Z,100352.19
2023-01-19T15:58:20.808Z,100355.59
2023-01-19T16:00:57.422Z,100346.09
2023-01-19T16:03:25.881Z,100352.06
2023-01-19T16:05:52.672Z,100354.59
2023-01-19T16:08:22.197Z,100351.97
2023-01-19T16:10:48.838Z,100345.97
2023-01-19T16:13:15.450Z,100344.28
2023-01-19T16:15:42.668Z,100342.59
2023-01-19T16:18:09.601Z,100349.50
2023-01-19T16:20:36.292Z,100352.06
2023-01-19T16:23:14.735Z,100345.19
2023-01-19T16:25:42.024Z,100351.25
2023-01-19T16:28:09.301Z,100350.34
2023-01-19T16:30:36.135Z,100350.31
2023-01-19T16:33:02.828Z,100356.31
2023-01-19T16:35:29.480Z,100353.69
2023-01-19T16:37:56.169Z,100360.53
2023-01-19T16:40:25.381Z,100357.97
2023-01-19T16:42:53.726Z,100361.34
2023-01-19T16:45:20.344Z,100363.91
2023-01-19T16:47:50.643Z,100355.31
2023-01-19T16:50:32.495Z,100359.56
2023-01-19T16:52:59.378Z,100359.56
2023-01-19T16:55:26.141Z,100355.28
2023-01-19T16:58:01.672Z,100361.28
2023-01-19T17:00:28.407Z,100360.44
2023-01-19T17:02:57.590Z,100363.91
2023-01-19T17:05:24.325Z,100362.22
2023-01-19T17:07:50.964Z,100364.81
2023-01-19T17:10:25.311Z,100353.72
2023-01-19T17:12:51.913Z,100360.63
2023-01-19T17:15:18.983Z,100364.97
2023-01-19T17:17:47.804Z,100362.41
2023-01-19T17:20:14.697Z,100365.88
2023-01-19T17:22:41.466Z,100368.44
2023-01-19T17:25:08.583Z,100361.56
2023-01-19T17:27:36.719Z,100371.84
2023-01-19T17:30:07.164Z,100369.31
2023-01-19T17:32:33.883Z,100364.16
2023-01-19T17:35:00.545Z,100372.72
2023-01-19T17:37:27.202Z,100372.72
2023-01-19T17:39:56.659Z,100372.72
2023-01-19T17:42:24.435Z,100372.72
2023-01-19T17:44:51.068Z,100378.72
2023-01-19T17:47:17.887Z,100376.19
2023-01-19T17:49:47.476Z,100374.44
2023-01-19T17:52:15.884Z,100383.00
2023-01-19T17:54:43.649Z,100384.72
2023-01-19T17:57:10.844Z,100389.81
2023-01-19T17:59:43.783Z,100395.78
2023-01-19T18:02:10.926Z,100401.78
2023-01-19T18:04:38.848Z,100396.69
2023-01-19T18:07:05.858Z,100392.44
2023-01-19T18:09:32.557Z,100396.75
2023-01-19T18:11:59.320Z,100390.75
2023-01-19T18:14:26.007Z,100397.59
2023-01-19T18:16:52.622Z,100399.31
2023-01-19T18:19:22.191Z,100408.69
2023-01-19T18:21:48.879Z,100412.94
2023-01-19T18:24:15.540Z,100410.31
2023-01-19T18:26:42.754Z,100407.75
2023-01-19T18:29:09.550Z,100410.31
2023-01-19T18:31:39.306Z,100412.91
2023-01-19T18:34:05.922Z,100416.28
2023-01-19T18:36:34.333Z,100409.47
2023-01-19T18:39:01.736Z,100412.06
2023-01-19T18:41:29.956Z,100420.63
2023-01-19T18:44:02.230Z,100418.13
2023-01-19T18:46:38.528Z,100425.84
2023-01-19T18:49:05.959Z,100425.88
2023-01-19T18:51:32.660Z,100426.78
2023-01-19T18:53:59.891Z,100424.22
2023-01-19T18:56:26.770Z,100429.38
2023-01-19T18:58:53.557Z,100432.84
2023-01-19T19:01:25.893Z,100442.28
2023-01-19T19:03:53.823Z,100445.78
2023-01-19T19:06:21.458Z,100449.22
2023-01-19T19:08:54.947Z,100450.06
2023-01-19T19:11:23.970Z,100445.78
2023-01-19T19:13:54.907Z,100461.25
2023-01-19T19:16:21.724Z,100456.13
2023-01-19T19:18:50.117Z,100462.13
2023-01-19T19:21:20.695Z,100467.28
2023-01-19T19:23:54.388Z,100460.44
2023-01-19T19:26:21.165Z,100465.59
2023-01-19T19:28:48.015Z,100474.22
2023-01-19T19:31:18.245Z,100463.94
2023-01-19T19:33:45.019Z,100475.97
2023-01-19T19:36:15.036Z,100469.13
2023-01-19T19:38:43.347Z,100480.28
2023-01-19T19:41:13.527Z,100475.16
2023-01-19T19:43:40.401Z,100485.47
2023-01-19T19:46:10.063Z,100479.44
2023-01-19T19:48:39.867Z,100489.78
2023-01-19T19:51:18.081Z,100486.34
2023-01-19T19:53:46.424Z,100488.91
2023-01-19T19:56:13.582Z,100484.63
2023-01-19T19:58:44.663Z,100494.94
2023-01-19T20:01:14.198Z,100500.97
2023-01-19T20:03:41.511Z,100499.25
2023-01-19T20:06:10.646Z,100504.44
2023-01-19T20:08:37.460Z,100499.28
2023-01-19T20:11:13.283Z,100500.16
2023-01-19T20:13:42.065Z,100501.03
2023-01-19T20:16:18.336Z,100506.16
2023-01-19T20:18:51.474Z,100510.44
2023-01-19T20:21:24.348Z,100513.03
2023-01-19T20:23:53.055Z,100513.03
2023-01-19T20:26:23.056Z,100518.19
2023-01-19T20:28:49.879Z,100520.78
2023-01-19T20:31:22.436Z,100531.09
2023-01-19T20:33:50.409Z,100530.25
2023-01-19T20:36:17.400Z,100530.28
2023-01-19T20:38:44.313Z,100533.72
2023-01-19T20:41:12.836Z,100537.16
2023-01-19T20:43:39.788Z,100530.28
2023-01-19T20:46:06.875Z,100526.84
2023-01-19T20:48:33.640Z,100532.00
2023-01-19T20:51:06.284Z,100541.47
2023-01-19T20:53:33.602Z,100543.19
2023-01-19T20:56:06.229Z,100550.94
2023-01-19T20:58:33.382Z,100547.50
2023-01-19T21:01:00.436Z,100540.63
2023-01-19T21:03:30.092Z,100540.63
2023-01-19T21:05:59.516Z,100544.09
2023-01-19T21:08:26.321Z,100555.25
2023-01-19T21:10:56.709Z,100549.25
2023-01-19T21:13:23.931Z,100554.38
2023-01-19T21:15:53.710Z,100555.25
2023-01-19T21:18:20.340Z,100550.09
2023-01-19T21:20:50.029Z,100556.09
2023-01-19T21:23:19.141Z,100566.41
2023-01-19T21:25:57.005Z,100572.44
2023-01-19T21:28:24.677Z,100570.72
2023-01-19T21:30:58.240Z,100585.31
2023-01-19T21:33:24.904Z,100575.91
2023-01-19T21:35:56.999Z,100587.06
2023-01-19T21:38:26.918Z,100587.94
2023-01-19T21:40:54.554Z,100584.50
2023-01-19T21:43:21.874Z,100593.97
2023-01-19T21:45:49.168Z,100593.13
2023-01-19T21:48:17.365Z,100599.97
2023-01-19T21:50:44.588Z,100606.88
2023-01-19T21:53:11.937Z,100609.44
2023-01-19T21:55:47.293Z,100613.75
2023-01-19T21:58:14.100Z,100612.88
2023-01-19T22:00:41.224Z,100613.75
2023-01-19T22:03:07.997Z,100614.63
2023-01-19T22:05:36.959Z,100616.34
2023-01-19T22:08:04.793Z,100624.09
2023-01-19T22:10:31.431Z,100640.41
2023-01-19T22:12:58.199Z,100631.81
2023-01-19T22:15:25.182Z,100637.00
2023-01-19T22:17:51.931Z,100635.25
2023-01-19T22:20:18.692Z,100636.13
2023-01-19T22:22:45.381Z,100641.28
2023-01-19T22:25:15.236Z,100644.75
2023-01-19T22:27:42.263Z,100655.94
2023-01-19T22:30:09.378Z,100644.78
2023-01-19T22:32:36.059Z,100655.09
2023-01-19T22:35:02.729Z,100649.06
2023-01-19T22:37:29.395Z,100652.50
2023-01-19T22:39:56.047Z,100662.81
2023-01-19T22:42:22.677Z,100668.84
2023-01-19T22:44:49.357Z,100661.13
2023-01-19T22:47:16.014Z,100668.00
2023-01-19T22:49:45.254Z,100667.16
2023-01-19T22:52:11.992Z,100674.84
2023-01-19T22:54:38.680Z,100665.41
2023-01-19T22:57:09.371Z,100661.97
2023-01-19T22:59:35.956Z,100662.84
2023-01-19T23:02:02.888Z,100665.44
2023-01-19T23:04:29.557Z,100669.72
2023-01-19T23:06:56.208Z,100678.28
2023-01-19T23:09:22.852Z,100676.59
2023-01-19T23:11:50.816Z,100674.00
2023-01-19T23:14:21.127Z,100677.44
2023-01-19T23:16:48.280Z,100673.16
2023-01-19T23:19:18.163Z,100676.59
2023-01-19T23:21:45.861Z,100680.91
2023-01-19T23:24:12.616Z,100684.31
2023-01-19T23:26:39.610Z,100685.19
2023-01-19T23:29:14.939Z,100694.66
2023-01-19T23:31:47.324Z,100695.53
2023-01-19T23:34:14.962Z,100696.41
2023-01-19T23:36:48.082Z,100703.28
2023-01-19T23:39:17.449Z,100701.56
2023-01-19T23:41:44.587Z,100703.28
2023-01-19T23:44:11.308Z,100703.28
2023-01-19T23:46:39.035Z,100695.53
2023-01-19T23:49:05.720Z,100696.41
2023-01-19T23:51:33.456Z,100697.31
2023-01-19T23:54:00.893Z,100692.97
2023-01-19T23:56:30.642Z,100695.56
2023-01-19T23:59:04.100Z,100688.69
